Richey, MT (59259)

11:06 PM MDT on August 29, 2014 (GMT -0600)
SE Bloomfield | Change Station
CLOSE
Current Station
Personal Weather Station
Location: Bloomfield, MT
Elevation: 2753 ft
Nearby Weather Stations

Elev 2753 ft 47.36 °N, 104.79 °W | Updated 42 seconds ago

Clear
Clear
56.0 °F
Feels Like 56.0 °F
N
4.0
Wind Variable Wind from SE
Gusts 5.0 mph

Today
High -- | Low -- °F
--% Chance of Precip.
Yesterday
High -- | Low -- °F
Precip. -- in
6:14 AM 7:46 PM
Waxing Crescent, 19% visible
Pressure 29.97 in
Visibility 10.0 miles
Clouds Clear
Dew Point 52 °F
Humidity 87%
Rainfall 0.11 in
Snow Depth Not available.
UV 0 out of 12
Pollen 9.40 out of 12
Air Quality Not available.
Flu Activity Not available.
METAR KGDV 300455Z AUTO 15005KT 10SM CLR 16/11 A2997 RMK AO1

More Conditions Fewer Conditions

Pressure 29.97 in
Visibility 10.0 miles
Clouds Clear
Dew Point 52 °F
Humidity 87%
Rainfall 0.11 in
Snow Depth Not available.
UV 0 out of 12
Pollen 9.40 out of 12
Air Quality Not available.
Flu Activity Not available.
METAR KGDV 300455Z AUTO 15005KT 10SM CLR 16/11 A2997 RMK AO1

More Conditions Fewer Conditions

10-Day Weather Forecast

Almanac

Astronomy

Aug. 29, 2014 Rise Set
Actual Time 6:14 AM MDT 7:46 PM MDT
Civil Twilight 5:42 AM MDT 8:18 PM MDT
Nautical Twilight 5:02 AM MDT 8:57 PM MDT
Astronomical Twilight 4:20 AM MDT 9:39 PM MDT
Moon 10:25 AM MDT (8/29) 9:24 PM MDT (8/29)
Length of Visible Light 14h 36m
Length of Day
13h 31m
Tomorrow will be 3m 17s shorter.
Waxing Crescent, 19% of the Moon is Illuminated
Aug 30
Waxing Crescent
Sep 2
First Quarter
Sep 8
Full
Sep 15
Last Quarter
Sep 24
New

Yesterday's Extremes

State Highs State Lows

Community

WunderPhotos

Upload Photos

1,748,459 photos uploaded!

Nearby

Snow Depth

Station Depth Elevation
Crystal Lake 0 in 6050 ft
Cole Creek 1 in 7850 ft
Burnt Mountain 0 in 5880 ft
Spur Park 0 in 8100 ft
Porcupine 1 in 6500 ft

Earthquake Activity

City Distance Mag. Time & Date
No recent earthquake activity has been reported nearby.
Minimum magnitude displayed is 2.5.

Coastal Water Temperatures

Place Temperature
No Stations Reporting

Nearby Weather Stations